sensor_id;sensor_type;location;lat;lon;timestamp;P1;P4;P2;P0;N10;N4;N25;N1;N05;TS
78447;SPS30;67742;51.972;5.682;2023-12-20T00:00:03;3.7;3.6;3.5;3.1;;;;2.0;13.0;
78447;SPS30;67742;51.972;5.682;2023-12-20T00:02:32;3.5;3.4;3.2;2.9;;;;2.0;12.0;
78447;SPS30;67742;51.972;5.682;2023-12-20T00:05:00;4.0;3.9;3.7;3.4;;;;2.0;12.0;
78447;SPS30;67742;51.972;5.682;2023-12-20T00:07:29;3.3;3.2;3.1;2.8;;;;2.0;11.0;
78447;SPS30;67742;51.972;5.682;2023-12-20T00:09:57;4.0;3.9;3.7;3.3;;;;2.0;10.0;
78447;SPS30;67742;51.972;5.682;2023-12-20T00:12:26;3.7;3.6;3.5;3.1;;;;2.0;10.0;
78447;SPS30;67742;51.972;5.682;2023-12-20T00:14:54;4.0;3.9;3.7;3.2;;;;2.0;9.0;
78447;SPS30;67742;51.972;5.682;2023-12-20T00:17:23;3.7;3.6;3.4;2.9;;;;2.0;9.0;
78447;SPS30;67742;51.972;5.682;2023-12-20T00:19:51;4.5;4.4;4.1;3.5;;;;2.0;9.0;
78447;SPS30;67742;51.972;5.682;2023-12-20T00:22:20;4.1;4.0;3.6;3.0;;;;2.0;9.0;
78447;SPS30;67742;51.972;5.682;2023-12-20T00:24:48;4.4;4.2;3.9;3.3;;;;3.0;9.0;
78447;SPS30;67742;51.972;5.682;2023-12-20T00:27:17;3.9;3.8;3.5;2.9;;;;3.0;10.0;
78447;SPS30;67742;51.972;5.682;2023-12-20T00:29:45;4.4;4.2;3.8;3.2;;;;3.0;10.0;
78447;SPS30;67742;51.972;5.682;2023-12-20T00:32:16;3.8;3.6;3.3;2.8;;;;3.0;10.0;
78447;SPS30;67742;51.972;5.682;2023-12-20T00:34:45;4.3;4.1;3.7;3.0;;;;3.0;10.0;
78447;SPS30;67742;51.972;5.682;2023-12-20T00:37:14;3.8;3.6;3.3;2.7;;;;3.0;10.0;
78447;SPS30;67742;51.972;5.682;2023-12-20T00:39:42;3.6;3.4;3.1;2.6;;;;3.0;9.0;
78447;SPS30;67742;51.972;5.682;2023-12-20T00:42:11;4.5;4.3;3.8;3.0;;;;3.0;9.0;
78447;SPS30;67742;51.972;5.682;2023-12-20T00:44:39;4.6;4.4;3.9;3.2;;;;3.0;9.0;
78447;SPS30;67742;51.972;5.682;2023-12-20T00:47:07;4.4;4.2;3.8;3.0;;;;3.0;10.0;
78447;SPS30;67742;51.972;5.682;2023-12-20T00:49:36;4.7;4.5;4.0;3.3;;;;3.0;10.0;
78447;SPS30;67742;51.972;5.682;2023-12-20T00:52:05;5.0;4.8;4.4;3.7;;;;3.0;13.0;
78447;SPS30;67742;51.972;5.682;2023-12-20T00:54:34;4.9;4.7;4.2;3.5;;;;3.0;15.0;
78447;SPS30;67742;51.972;5.682;2023-12-20T00:57:02;3.8;3.6;3.3;2.8;;;;3.0;17.0;
78447;SPS30;67742;51.972;5.682;2023-12-20T00:59:31;4.2;4.0;3.7;3.1;;;;3.0;17.0;
78447;SPS30;67742;51.972;5.682;2023-12-20T01:02:00;4.3;4.1;3.8;3.2;;;;3.0;16.0;
78447;SPS30;67742;51.972;5.682;2023-12-20T01:04:29;4.6;4.4;4.0;3.3;;;;3.0;16.0;
78447;SPS30;67742;51.972;5.682;2023-12-20T01:06:58;4.5;4.3;4.0;3.4;;;;3.0;16.0;
78447;SPS30;67742;51.972;5.682;2023-12-20T01:09:26;3.6;3.5;3.2;2.8;;;;3.0;16.0;
78447;SPS30;67742;51.972;5.682;2023-12-20T01:11:55;3.7;3.6;3.3;2.8;;;;3.0;16.0;
78447;SPS30;67742;51.972;5.682;2023-12-20T01:14:23;4.0;3.8;3.5;2.9;;;;3.0;15.0;
78447;SPS30;67742;51.972;5.682;2023-12-20T01:16:51;4.1;3.9;3.5;2.8;;;;3.0;14.0;
78447;SPS30;67742;51.972;5.682;2023-12-20T01:19:20;4.8;4.5;3.9;3.1;;;;3.0;14.0;
78447;SPS30;67742;51.972;5.682;2023-12-20T01:21:50;4.5;4.2;3.7;2.8;;;;3.0;13.0;
78447;SPS30;67742;51.972;5.682;2023-12-20T01:24:18;4.0;3.8;3.4;2.7;;;;4.0;13.0;
78447;SPS30;67742;51.972;5.682;2023-12-20T01:26:47;5.0;4.7;4.2;3.4;;;;4.0;13.0;
78447;SPS30;67742;51.972;5.682;2023-12-20T01:29:15;4.4;4.2;3.7;3.1;;;;4.0;12.0;
78447;SPS30;67742;51.972;5.682;2023-12-20T01:31:44;3.7;3.5;3.2;2.6;;;;4.0;12.0;
78447;SPS30;67742;51.972;5.682;2023-12-20T01:34:12;3.9;3.7;3.3;2.6;;;;4.0;12.0;
78447;SPS30;67742;51.972;5.682;2023-12-20T01:36:41;3.9;3.7;3.2;2.6;;;;4.0;12.0;
78447;SPS30;67742;51.972;5.682;2023-12-20T01:39:10;4.5;4.2;3.6;2.8;;;;4.0;12.0;
78447;SPS30;67742;51.972;5.682;2023-12-20T01:41:40;3.6;3.4;3.0;2.3;;;;4.0;12.0;
78447;SPS30;67742;51.972;5.682;2023-12-20T01:44:08;4.4;4.1;3.6;2.8;;;;4.0;11.0;
78447;SPS30;67742;51.972;5.682;2023-12-20T01:46:36;4.5;4.2;3.6;2.6;;;;4.0;11.0;
78447;SPS30;67742;51.972;5.682;2023-12-20T01:49:07;4.1;3.8;3.2;2.3;;;;4.0;11.0;
78447;SPS30;67742;51.972;5.682;2023-12-20T01:51:36;5.4;5.0;4.2;3.0;;;;4.0;12.0;
78447;SPS30;67742;51.972;5.682;2023-12-20T01:54:06;5.4;5.0;4.1;2.9;;;;4.0;12.0;
78447;SPS30;67742;51.972;5.682;2023-12-20T01:56:35;4.5;4.2;3.5;2.5;;;;4.0;14.0;
78447;SPS30;67742;51.972;5.682;2023-12-20T01:59:03;4.9;4.6;3.8;2.7;;;;4.0;14.0;
78447;SPS30;67742;51.972;5.682;2023-12-20T02:01:32;5.1;4.7;3.9;2.7;;;;4.0;15.0;
78447;SPS30;67742;51.972;5.682;2023-12-20T02:04:03;5.4;4.9;4.0;2.8;;;;4.0;16.0;
78447;SPS30;67742;51.972;5.682;2023-12-20T02:06:32;5.4;4.9;4.0;2.7;;;;4.0;17.0;
78447;SPS30;67742;51.972;5.682;2023-12-20T02:09:02;4.0;3.7;3.0;2.1;;;;4.0;17.0;
78447;SPS30;67742;51.972;5.682;2023-12-20T02:11:31;4.4;4.1;3.4;2.3;;;;4.0;18.0;
78447;SPS30;67742;51.972;5.682;2023-12-20T02:14:01;4.7;4.3;3.5;2.4;;;;4.0;18.0;
78447;SPS30;67742;51.972;5.682;2023-12-20T02:16:30;3.9;3.6;3.0;2.1;;;;4.0;19.0;
78447;SPS30;67742;51.972;5.682;2023-12-20T02:18:59;5.7;5.2;4.3;3.0;;;;4.0;19.0;
78447;SPS30;67742;51.972;5.682;2023-12-20T02:21:33;4.8;4.4;3.6;2.5;;;;4.0;20.0;
78447;SPS30;67742;51.972;5.682;2023-12-20T02:24:04;4.7;4.3;3.5;2.4;;;;4.0;23.0;
78447;SPS30;67742;51.972;5.682;2023-12-20T02:26:33;5.3;4.8;3.8;2.5;;;;4.0;23.0;
78447;SPS30;67742;51.972;5.682;2023-12-20T02:29:02;5.4;5.0;4.0;2.7;;;;4.0;26.0;
78447;SPS30;67742;51.972;5.682;2023-12-20T02:31:30;5.3;4.8;3.9;2.6;;;;4.0;25.0;
78447;SPS30;67742;51.972;5.682;2023-12-20T02:34:01;5.4;5.0;4.0;2.7;;;;4.0;24.0;
78447;SPS30;67742;51.972;5.682;2023-12-20T02:36:29;4.0;3.7;3.0;2.0;;;;4.0;23.0;
78447;SPS30;67742;51.972;5.682;2023-12-20T02:38:58;5.4;5.0;4.1;2.9;;;;4.0;23.0;
78447;SPS30;67742;51.972;5.682;2023-12-20T02:41:26;5.6;5.2;4.3;3.1;;;;4.0;23.0;
78447;SPS30;67742;51.972;5.682;2023-12-20T02:43:55;5.0;4.6;3.8;2.7;;;;4.0;23.0;
78447;SPS30;67742;51.972;5.682;2023-12-20T02:46:23;4.6;4.3;3.5;2.4;;;;4.0;25.0;
78447;SPS30;67742;51.972;5.682;2023-12-20T02:48:51;5.5;5.1;4.2;3.0;;;;4.0;26.0;
78447;SPS30;67742;51.972;5.682;2023-12-20T02:51:20;5.3;5.0;4.2;3.1;;;;4.0;28.0;
78447;SPS30;67742;51.972;5.682;2023-12-20T02:53:48;5.1;4.7;3.9;2.8;;;;4.0;29.0;
78447;SPS30;67742;51.972;5.682;2023-12-20T02:56:17;5.7;5.3;4.4;3.2;;;;4.0;33.0;
78447;SPS30;67742;51.972;5.682;2023-12-20T02:58:45;5.6;5.2;4.3;3.1;;;;4.0;35.0;
78447;SPS30;67742;51.972;5.682;2023-12-20T03:01:14;4.8;4.4;3.6;2.5;;;;4.0;35.0;
78447;SPS30;67742;51.972;5.682;2023-12-20T03:03:42;6.2;5.8;4.7;3.3;;;;4.0;35.0;
78447;SPS30;67742;51.972;5.682;2023-12-20T03:06:11;5.3;4.9;4.1;2.9;;;;4.0;34.0;
78447;SPS30;67742;51.972;5.682;2023-12-20T03:08:39;5.4;5.0;4.2;3.1;;;;3.0;33.0;
78447;SPS30;67742;51.972;5.682;2023-12-20T03:11:08;4.9;4.5;3.7;2.7;;;;3.0;32.0;
78447;SPS30;67742;51.972;5.682;2023-12-20T03:13:36;5.4;5.1;4.3;3.2;;;;3.0;32.0;
78447;SPS30;67742;51.972;5.682;2023-12-20T03:16:09;5.3;4.9;4.1;3.0;;;;3.0;33.0;
78447;SPS30;67742;51.972;5.682;2023-12-20T03:18:38;5.1;4.8;4.0;3.0;;;;3.0;31.0;
78447;SPS30;67742;51.972;5.682;2023-12-20T03:21:07;5.4;5.1;4.2;3.1;;;;3.0;30.0;
78447;SPS30;67742;51.972;5.682;2023-12-20T03:23:36;6.1;5.6;4.6;3.2;;;;3.0;28.0;
78447;SPS30;67742;51.972;5.682;2023-12-20T03:26:05;5.5;5.1;4.1;2.8;;;;3.0;28.0;
78447;SPS30;67742;51.972;5.682;2023-12-20T03:28:35;6.0;5.6;4.7;3.4;;;;3.0;26.0;
78447;SPS30;67742;51.972;5.682;2023-12-20T03:31:04;5.5;5.1;4.2;3.0;;;;3.0;25.0;
78447;SPS30;67742;51.972;5.682;2023-12-20T03:33:33;5.7;5.3;4.4;3.1;;;;3.0;24.0;
78447;SPS30;67742;51.972;5.682;2023-12-20T03:36:01;6.7;6.2;5.1;3.6;;;;3.0;25.0;
78447;SPS30;67742;51.972;5.682;2023-12-20T03:38:30;5.9;5.5;4.6;3.3;;;;4.0;25.0;
78447;SPS30;67742;51.972;5.682;2023-12-20T03:40:58;5.0;4.7;3.9;2.9;;;;4.0;25.0;
78447;SPS30;67742;51.972;5.682;2023-12-20T03:43:27;6.1;5.6;4.7;3.3;;;;4.0;25.0;
78447;SPS30;67742;51.972;5.682;2023-12-20T03:45:55;5.8;5.4;4.5;3.2;;;;4.0;26.0;
78447;SPS30;67742;51.972;5.682;2023-12-20T03:48:25;5.2;4.8;4.0;2.8;;;;4.0;26.0;
78447;SPS30;67742;51.972;5.682;2023-12-20T03:50:53;5.1;4.8;4.0;2.9;;;;4.0;26.0;
78447;SPS30;67742;51.972;5.682;2023-12-20T03:53:21;6.3;5.8;4.9;3.5;;;;4.0;26.0;
78447;SPS30;67742;51.972;5.682;2023-12-20T03:55:50;5.4;5.0;4.2;3.1;;;;4.0;26.0;
78447;SPS30;67742;51.972;5.682;2023-12-20T03:58:19;5.9;5.5;4.5;3.2;;;;4.0;26.0;
78447;SPS30;67742;51.972;5.682;2023-12-20T04:00:47;4.8;4.4;3.6;2.4;;;;4.0;26.0;
78447;SPS30;67742;51.972;5.682;2023-12-20T04:03:16;6.8;6.3;5.1;3.5;;;;4.0;26.0;
78447;SPS30;67742;51.972;5.682;2023-12-20T04:05:44;6.4;5.8;4.7;3.2;;;;4.0;26.0;
78447;SPS30;67742;51.972;5.682;2023-12-20T04:08:14;7.2;6.6;5.3;3.5;;;;4.0;26.0;
78447;SPS30;67742;51.972;5.682;2023-12-20T04:10:43;7.4;6.8;5.4;3.6;;;;4.0;26.0;
78447;SPS30;67742;51.972;5.682;2023-12-20T04:13:11;8.4;7.6;6.0;3.8;;;;4.0;25.0;
78447;SPS30;67742;51.972;5.682;2023-12-20T04:15:40;6.3;5.8;4.7;3.1;;;;4.0;25.0;
78447;SPS30;67742;51.972;5.682;2023-12-20T04:18:09;7.2;6.6;5.2;3.4;;;;4.0;25.0;
78447;SPS30;67742;51.972;5.682;2023-12-20T04:20:37;7.0;6.4;5.1;3.3;;;;4.0;23.0;
78447;SPS30;67742;51.972;5.682;2023-12-20T04:23:05;7.3;6.7;5.3;3.5;;;;4.0;22.0;
78447;SPS30;67742;51.972;5.682;2023-12-20T04:25:36;6.4;5.9;4.8;3.3;;;;4.0;20.0;
78447;SPS30;67742;51.972;5.682;2023-12-20T04:28:05;6.3;5.7;4.5;2.9;;;;4.0;19.0;
78447;SPS30;67742;51.972;5.682;2023-12-20T04:30:33;8.4;7.6;5.9;3.6;;;;4.0;19.0;
78447;SPS30;67742;51.972;5.682;2023-12-20T04:33:02;6.9;6.3;5.0;3.2;;;;4.0;17.0;
78447;SPS30;67742;51.972;5.682;2023-12-20T04:35:31;6.6;6.0;4.7;3.0;;;;4.0;16.0;
78447;SPS30;67742;51.972;5.682;2023-12-20T04:37:59;7.2;6.5;5.0;3.1;;;;4.0;15.0;
78447;SPS30;67742;51.972;5.682;2023-12-20T04:40:30;6.3;5.8;4.5;2.9;;;;4.0;14.0;
78447;SPS30;67742;51.972;5.682;2023-12-20T04:42:58;5.4;4.9;3.9;2.5;;;;4.0;14.0;
78447;SPS30;67742;51.972;5.682;2023-12-20T04:45:27;6.2;5.7;4.5;2.9;;;;4.0;15.0;
78447;SPS30;67742;51.972;5.682;2023-12-20T04:47:56;6.4;5.8;4.5;2.9;;;;4.0;15.0;
78447;SPS30;67742;51.972;5.682;2023-12-20T04:50:25;6.6;6.0;4.7;3.0;;;;4.0;16.0;
78447;SPS30;67742;51.972;5.682;2023-12-20T04:52:53;7.1;6.4;5.0;3.2;;;;4.0;16.0;
78447;SPS30;67742;51.972;5.682;2023-12-20T04:55:22;6.4;5.8;4.6;3.0;;;;4.0;16.0;
78447;SPS30;67742;51.972;5.682;2023-12-20T04:57:50;7.3;6.6;5.1;3.2;;;;4.0;16.0;
78447;SPS30;67742;51.972;5.682;2023-12-20T05:00:19;7.7;6.9;5.4;3.3;;;;4.0;16.0;
78447;SPS30;67742;51.972;5.682;2023-12-20T05:02:50;8.5;7.6;5.9;3.6;;;;4.0;15.0;
78447;SPS30;67742;51.972;5.682;2023-12-20T05:05:18;8.0;7.2;5.6;3.3;;;;5.0;15.0;
78447;SPS30;67742;51.972;5.682;2023-12-20T05:07:47;8.3;7.4;5.6;3.2;;;;5.0;14.0;
78447;SPS30;67742;51.972;5.682;2023-12-20T05:10:15;8.0;7.2;5.5;3.3;;;;5.0;14.0;
78447;SPS30;67742;51.972;5.682;2023-12-20T05:12:44;7.0;6.3;4.9;2.9;;;;5.0;14.0;
78447;SPS30;67742;51.972;5.682;2023-12-20T05:15:12;7.1;6.4;4.9;3.0;;;;5.0;13.0;
78447;SPS30;67742;51.972;5.682;2023-12-20T05:17:41;7.0;6.3;4.9;3.0;;;;5.0;13.0;
78447;SPS30;67742;51.972;5.682;2023-12-20T05:20:10;6.7;6.0;4.6;2.8;;;;5.0;13.0;
78447;SPS30;67742;51.972;5.682;2023-12-20T05:22:40;8.3;7.5;5.8;3.6;;;;5.0;13.0;
78447;SPS30;67742;51.972;5.682;2023-12-20T05:25:11;8.0;7.2;5.4;3.1;;;;5.0;13.0;
78447;SPS30;67742;51.972;5.682;2023-12-20T05:27:39;7.5;6.7;5.0;2.8;;;;5.0;13.0;
78447;SPS30;67742;51.972;5.682;2023-12-20T05:30:08;6.1;5.5;4.2;2.5;;;;5.0;13.0;
78447;SPS30;67742;51.972;5.682;2023-12-20T05:32:38;7.7;7.0;5.4;3.4;;;;5.0;14.0;
78447;SPS30;67742;51.972;5.682;2023-12-20T05:35:07;7.8;7.0;5.4;3.3;;;;5.0;14.0;
78447;SPS30;67742;51.972;5.682;2023-12-20T05:37:35;7.7;7.0;5.5;3.4;;;;5.0;15.0;
78447;SPS30;67742;51.972;5.682;2023-12-20T05:40:07;6.8;6.1;4.7;2.9;;;;5.0;15.0;
78447;SPS30;67742;51.972;5.682;2023-12-20T05:42:37;7.2;6.5;4.9;2.9;;;;5.0;16.0;
78447;SPS30;67742;51.972;5.682;2023-12-20T05:45:08;7.5;6.8;5.2;3.1;;;;5.0;16.0;
78447;SPS30;67742;51.972;5.682;2023-12-20T05:47:38;8.3;7.5;5.8;3.6;;;;5.0;17.0;
78447;SPS30;67742;51.972;5.682;2023-12-20T05:50:07;8.0;7.3;5.6;3.5;;;;5.0;16.0;
78447;SPS30;67742;51.972;5.682;2023-12-20T05:52:36;8.2;7.4;5.7;3.4;;;;5.0;15.0;
78447;SPS30;67742;51.972;5.682;2023-12-20T05:55:05;7.0;6.4;4.9;3.0;;;;5.0;15.0;
78447;SPS30;67742;51.972;5.682;2023-12-20T05:57:34;7.2;6.5;5.1;3.1;;;;5.0;15.0;
78447;SPS30;67742;51.972;5.682;2023-12-20T06:00:03;8.0;7.2;5.5;3.4;;;;5.0;16.0;
78447;SPS30;67742;51.972;5.682;2023-12-20T06:02:32;6.2;5.6;4.3;2.7;;;;5.0;16.0;
78447;SPS30;67742;51.972;5.682;2023-12-20T06:05:03;7.8;7.0;5.4;3.4;;;;5.0;17.0;
78447;SPS30;67742;51.972;5.682;2023-12-20T06:07:32;6.9;6.3;4.9;3.1;;;;5.0;17.0;
78447;SPS30;67742;51.972;5.682;2023-12-20T06:10:01;7.8;7.1;5.6;3.5;;;;5.0;18.0;
78447;SPS30;67742;51.972;5.682;2023-12-20T06:12:30;6.5;6.0;4.8;3.1;;;;5.0;18.0;
78447;SPS30;67742;51.972;5.682;2023-12-20T06:15:02;6.9;6.3;5.0;3.3;;;;5.0;19.0;
78447;SPS30;67742;51.972;5.682;2023-12-20T06:17:32;7.0;6.3;5.0;3.2;;;;5.0;19.0;
78447;SPS30;67742;51.972;5.682;2023-12-20T06:20:01;7.3;6.6;5.2;3.3;;;;5.0;19.0;
78447;SPS30;67742;51.972;5.682;2023-12-20T06:22:33;7.1;6.4;5.0;3.2;;;;5.0;19.0;
78447;SPS30;67742;51.972;5.682;2023-12-20T06:25:02;6.9;6.2;4.8;2.9;;;;5.0;19.0;
78447;SPS30;67742;51.972;5.682;2023-12-20T06:27:32;8.1;7.3;5.6;3.3;;;;5.0;20.0;
78447;SPS30;67742;51.972;5.682;2023-12-20T06:30:03;7.4;6.6;5.0;3.0;;;;5.0;20.0;
78447;SPS30;67742;51.972;5.682;2023-12-20T06:32:32;8.9;8.1;6.2;3.8;;;;5.0;21.0;
78447;SPS30;67742;51.972;5.682;2023-12-20T06:35:00;6.9;6.2;4.8;2.9;;;;5.0;21.0;
78447;SPS30;67742;51.972;5.682;2023-12-20T06:37:31;6.9;6.2;4.7;2.8;;;;5.0;21.0;
78447;SPS30;67742;51.972;5.682;2023-12-20T06:39:59;6.8;6.2;4.8;2.9;;;;5.0;21.0;
78447;SPS30;67742;51.972;5.682;2023-12-20T06:42:27;7.2;6.5;5.0;3.1;;;;5.0;22.0;
78447;SPS30;67742;51.972;5.682;2023-12-20T06:44:56;7.8;7.1;5.4;3.3;;;;5.0;23.0;
78447;SPS30;67742;51.972;5.682;2023-12-20T06:47:24;8.8;7.9;6.2;3.8;;;;5.0;25.0;
78447;SPS30;67742;51.972;5.682;2023-12-20T06:49:53;8.6;7.8;6.0;3.7;;;;5.0;28.0;
78447;SPS30;67742;51.972;5.682;2023-12-20T06:52:22;6.9;6.3;4.8;3.0;;;;5.0;37.0;
78447;SPS30;67742;51.972;5.682;2023-12-20T06:54:50;7.1;6.5;5.1;3.2;;;;5.0;47.0;
78447;SPS30;67742;51.972;5.682;2023-12-20T06:57:19;7.1;6.4;5.1;3.2;;;;5.0;53.0;
78447;SPS30;67742;51.972;5.682;2023-12-20T06:59:47;8.1;7.4;5.8;3.7;;;;4.0;61.0;
78447;SPS30;67742;51.972;5.682;2023-12-20T07:02:18;7.3;6.7;5.3;3.5;;;;4.0;60.0;
78447;SPS30;67742;51.972;5.682;2023-12-20T07:04:48;6.9;6.3;5.0;3.3;;;;4.0;63.0;
78447;SPS30;67742;51.972;5.682;2023-12-20T07:07:16;6.4;5.8;4.5;2.9;;;;4.0;67.0;
78447;SPS30;67742;51.972;5.682;2023-12-20T07:09:45;7.8;7.1;5.6;3.5;;;;4.0;68.0;
78447;SPS30;67742;51.972;5.682;2023-12-20T07:12:14;7.8;7.1;5.6;3.6;;;;4.0;72.0;
78447;SPS30;67742;51.972;5.682;2023-12-20T07:14:44;7.5;6.9;5.5;3.8;;;;4.0;72.0;
78447;SPS30;67742;51.972;5.682;2023-12-20T07:17:13;7.0;6.5;5.2;3.6;;;;4.0;78.0;
78447;SPS30;67742;51.972;5.682;2023-12-20T07:19:42;6.6;6.1;5.0;3.4;;;;4.0;84.0;
78447;SPS30;67742;51.972;5.682;2023-12-20T07:22:10;8.2;7.4;5.9;3.8;;;;4.0;87.0;
78447;SPS30;67742;51.972;5.682;2023-12-20T07:24:39;6.8;6.2;5.0;3.3;;;;4.0;89.0;
78447;SPS30;67742;51.972;5.682;2023-12-20T07:27:08;6.7;6.1;4.9;3.3;;;;4.0;93.0;
78447;SPS30;67742;51.972;5.682;2023-12-20T07:29:36;8.1;7.4;5.9;3.9;;;;4.0;93.0;
78447;SPS30;67742;51.972;5.682;2023-12-20T07:32:05;7.7;7.0;5.5;3.5;;;;4.0;98.0;
78447;SPS30;67742;51.972;5.682;2023-12-20T07:34:34;7.2;6.6;5.1;3.2;;;;4.0;93.0;
78447;SPS30;67742;51.972;5.682;2023-12-20T07:37:03;8.2;7.4;5.8;3.6;;;;4.0;87.0;
78447;SPS30;67742;51.972;5.682;2023-12-20T07:39:32;8.4;7.7;6.0;3.8;;;;4.0;74.0;
78447;SPS30;67742;51.972;5.682;2023-12-20T07:42:00;7.2;6.6;5.3;3.5;;;;4.0;64.0;
78447;SPS30;67742;51.972;5.682;2023-12-20T07:44:28;8.3;7.5;5.9;3.8;;;;4.0;65.0;
78447;SPS30;67742;51.972;5.682;2023-12-20T07:46:57;8.3;7.5;5.9;3.7;;;;4.0;66.0;
78447;SPS30;67742;51.972;5.682;2023-12-20T07:49:27;7.3;6.7;5.4;3.6;;;;4.0;68.0;
78447;SPS30;67742;51.972;5.682;2023-12-20T07:51:56;6.3;5.8;4.7;3.3;;;;4.0;73.0;
78447;SPS30;67742;51.972;5.682;2023-12-20T07:54:24;7.0;6.4;5.3;3.8;;;;3.0;83.0;
78447;SPS30;67742;51.972;5.682;2023-12-20T07:56:53;7.2;6.6;5.4;3.8;;;;3.0;86.0;
78447;SPS30;67742;51.972;5.682;2023-12-20T07:59:21;7.3;6.7;5.4;3.6;;;;3.0;91.0;
78447;SPS30;67742;51.972;5.682;2023-12-20T08:01:49;7.4;6.8;5.4;3.5;;;;3.0;97.0;
78447;SPS30;67742;51.972;5.682;2023-12-20T08:04:18;8.3;7.5;5.8;3.6;;;;3.0;96.0;
78447;SPS30;67742;51.972;5.682;2023-12-20T08:06:46;8.1;7.4;5.8;3.7;;;;3.0;95.0;
78447;SPS30;67742;51.972;5.682;2023-12-20T08:09:15;6.7;6.1;5.0;3.4;;;;3.0;127.0;
78447;SPS30;67742;51.972;5.682;2023-12-20T08:11:46;7.7;7.0;5.6;3.7;;;;3.0;111.0;
78447;SPS30;67742;51.972;5.682;2023-12-20T08:14:15;8.0;7.3;5.8;3.7;;;;3.0;96.0;
78447;SPS30;67742;51.972;5.682;2023-12-20T08:16:44;7.6;6.9;5.4;3.5;;;;3.0;90.0;
78447;SPS30;67742;51.972;5.682;2023-12-20T08:19:12;7.8;7.1;5.6;3.6;;;;3.0;89.0;
78447;SPS30;67742;51.972;5.682;2023-12-20T08:21:41;6.9;6.3;4.9;3.1;;;;3.0;86.0;
78447;SPS30;67742;51.972;5.682;2023-12-20T08:24:10;8.0;7.2;5.7;3.6;;;;3.0;84.0;
78447;SPS30;67742;51.972;5.682;2023-12-20T08:26:38;6.8;6.2;4.9;3.1;;;;3.0;83.0;
78447;SPS30;67742;51.972;5.682;2023-12-20T08:29:07;7.0;6.4;5.1;3.3;;;;3.0;81.0;
78447;SPS30;67742;51.972;5.682;2023-12-20T08:31:35;7.8;7.2;5.7;3.8;;;;3.0;76.0;
78447;SPS30;67742;51.972;5.682;2023-12-20T08:34:04;8.2;7.5;5.9;3.8;;;;3.0;76.0;
78447;SPS30;67742;51.972;5.682;2023-12-20T08:36:32;7.5;6.9;5.5;3.6;;;;3.0;76.0;
78447;SPS30;67742;51.972;5.682;2023-12-20T08:39:01;7.8;7.0;5.4;3.3;;;;3.0;76.0;
78447;SPS30;67742;51.972;5.682;2023-12-20T08:41:32;6.6;6.0;4.7;2.9;;;;3.0;75.0;
78447;SPS30;67742;51.972;5.682;2023-12-20T08:44:00;8.2;7.4;5.7;3.5;;;;3.0;71.0;
78447;SPS30;67742;51.972;5.682;2023-12-20T08:46:29;7.7;7.0;5.5;3.5;;;;3.0;69.0;
78447;SPS30;67742;51.972;5.682;2023-12-20T08:48:58;7.5;6.8;5.4;3.4;;;;3.0;68.0;
78447;SPS30;67742;51.972;5.682;2023-12-20T08:51:27;7.9;7.2;5.6;3.4;;;;3.0;70.0;
78447;SPS30;67742;51.972;5.682;2023-12-20T08:53:55;8.1;7.3;5.6;3.5;;;;3.0;71.0;
78447;SPS30;67742;51.972;5.682;2023-12-20T08:56:24;7.2;6.5;5.1;3.3;;;;3.0;71.0;
78447;SPS30;67742;51.972;5.682;2023-12-20T08:58:52;8.2;7.4;5.8;3.7;;;;3.0;72.0;
78447;SPS30;67742;51.972;5.682;2023-12-20T09:01:21;8.5;7.6;5.9;3.7;;;;3.0;72.0;
78447;SPS30;67742;51.972;5.682;2023-12-20T09:03:49;8.1;7.3;5.7;3.6;;;;3.0;72.0;
78447;SPS30;67742;51.972;5.682;2023-12-20T09:06:18;8.2;7.3;5.6;3.3;;;;3.0;73.0;
78447;SPS30;67742;51.972;5.682;2023-12-20T09:08:46;8.3;7.5;5.7;3.4;;;;3.0;74.0;
78447;SPS30;67742;51.972;5.682;2023-12-20T09:11:15;7.8;7.1;5.5;3.4;;;;3.0;73.0;
78447;SPS30;67742;51.972;5.682;2023-12-20T09:13:43;6.8;6.2;4.9;3.1;;;;3.0;71.0;
78447;SPS30;67742;51.972;5.682;2023-12-20T09:16:12;7.2;6.5;5.1;3.3;;;;3.0;69.0;
78447;SPS30;67742;51.972;5.682;2023-12-20T09:18:42;7.7;7.0;5.5;3.5;;;;3.0;71.0;
78447;SPS30;67742;51.972;5.682;2023-12-20T09:21:10;8.0;7.2;5.5;3.3;;;;3.0;71.0;
78447;SPS30;67742;51.972;5.682;2023-12-20T09:23:39;7.3;6.6;5.1;3.2;;;;3.0;72.0;
78447;SPS30;67742;51.972;5.682;2023-12-20T09:26:07;9.9;8.9;7.0;4.4;;;;3.0;74.0;
78447;SPS30;67742;51.972;5.682;2023-12-20T09:28:36;8.7;7.9;6.2;3.9;;;;3.0;81.0;
78447;SPS30;67742;51.972;5.682;2023-12-20T09:31:06;7.4;6.7;5.3;3.4;;;;3.0;85.0;
78447;SPS30;67742;51.972;5.682;2023-12-20T09:33:35;6.9;6.2;4.9;3.1;;;;3.0;83.0;
78447;SPS30;67742;51.972;5.682;2023-12-20T09:36:04;7.5;6.8;5.2;3.2;;;;3.0;82.0;
78447;SPS30;67742;51.972;5.682;2023-12-20T09:38:33;8.7;7.9;6.1;3.7;;;;3.0;81.0;
78447;SPS30;67742;51.972;5.682;2023-12-20T09:41:02;6.7;6.1;4.8;3.1;;;;3.0;81.0;
78447;SPS30;67742;51.972;5.682;2023-12-20T09:43:32;7.6;6.8;5.3;3.3;;;;3.0;85.0;
78447;SPS30;67742;51.972;5.682;2023-12-20T09:46:05;8.2;7.4;5.8;3.6;;;;3.0;88.0;
78447;SPS30;67742;51.972;5.682;2023-12-20T09:48:36;7.7;7.0;5.5;3.4;;;;3.0;86.0;
78447;SPS30;67742;51.972;5.682;2023-12-20T09:51:07;9.2;8.3;6.4;3.9;;;;3.0;81.0;
78447;SPS30;67742;51.972;5.682;2023-12-20T09:53:35;6.9;6.2;4.8;2.9;;;;3.0;79.0;
78447;SPS30;67742;51.972;5.682;2023-12-20T09:56:06;6.9;6.2;4.8;2.9;;;;3.0;83.0;
78447;SPS30;67742;51.972;5.682;2023-12-20T09:58:37;9.2;8.3;6.3;3.7;;;;3.0;83.0;
78447;SPS30;67742;51.972;5.682;2023-12-20T10:01:08;8.6;7.8;6.0;3.7;;;;3.0;86.0;
78447;SPS30;67742;51.972;5.682;2023-12-20T10:03:38;8.6;7.9;6.3;4.1;;;;3.0;87.0;
78447;SPS30;67742;51.972;5.682;2023-12-20T10:06:09;7.1;6.5;5.2;3.4;;;;3.0;87.0;
78447;SPS30;67742;51.972;5.682;2023-12-20T10:08:38;6.7;6.1;4.8;3.2;;;;3.0;87.0;
78447;SPS30;67742;51.972;5.682;2023-12-20T10:11:07;7.1;6.5;5.4;3.8;;;;3.0;86.0;
78447;SPS30;67742;51.972;5.682;2023-12-20T10:13:39;6.8;6.2;5.0;3.4;;;;3.0;80.0;
78447;SPS30;67742;51.972;5.682;2023-12-20T10:16:08;7.4;6.8;5.5;3.8;;;;3.0;79.0;
78447;SPS30;67742;51.972;5.682;2023-12-20T10:18:37;6.3;5.8;4.8;3.3;;;;3.0;80.0;
78447;SPS30;67742;51.972;5.682;2023-12-20T10:21:06;7.8;7.1;5.7;3.8;;;;3.0;80.0;
78447;SPS30;67742;51.972;5.682;2023-12-20T10:23:36;6.8;6.2;5.0;3.4;;;;3.0;80.0;
78447;SPS30;67742;51.972;5.682;2023-12-20T10:26:06;7.0;6.3;5.0;3.3;;;;3.0;79.0;
78447;SPS30;67742;51.972;5.682;2023-12-20T10:28:35;8.2;7.4;5.8;3.6;;;;3.0;82.0;
78447;SPS30;67742;51.972;5.682;2023-12-20T10:31:04;7.4;6.7;5.3;3.4;;;;3.0;92.0;
78447;SPS30;67742;51.972;5.682;2023-12-20T10:33:32;6.6;6.0;4.8;3.1;;;;2.0;92.0;
78447;SPS30;67742;51.972;5.682;2023-12-20T10:36:01;7.7;7.0;5.4;3.4;;;;2.0;93.0;
78447;SPS30;67742;51.972;5.682;2023-12-20T10:38:31;6.5;5.9;4.6;2.9;;;;2.0;94.0;
78447;SPS30;67742;51.972;5.682;2023-12-20T10:40:59;7.1;6.4;5.0;3.1;;;;2.0;93.0;
78447;SPS30;67742;51.972;5.682;2023-12-20T10:43:32;5.4;4.9;3.8;2.4;;;;2.0;110.0;
78447;SPS30;67742;51.972;5.682;2023-12-20T10:46:02;6.6;6.0;4.9;3.3;;;;2.0;105.0;
78447;SPS30;67742;51.972;5.682;2023-12-20T10:48:31;6.5;5.9;4.8;3.2;;;;2.0;104.0;
78447;SPS30;67742;51.972;5.682;2023-12-20T10:51:01;7.9;7.2;5.8;3.9;;;;2.0;102.0;
78447;SPS30;67742;51.972;5.682;2023-12-20T10:53:33;7.0;6.4;5.2;3.6;;;;2.0;103.0;
78447;SPS30;67742;51.972;5.682;2023-12-20T10:56:06;6.9;6.3;5.1;3.4;;;;2.0;101.0;
78447;SPS30;67742;51.972;5.682;2023-12-20T10:58:38;7.0;6.4;5.1;3.3;;;;2.0;96.0;
78447;SPS30;67742;51.972;5.682;2023-12-20T11:01:11;7.2;6.5;5.1;3.3;;;;2.0;88.0;
78447;SPS30;67742;51.972;5.682;2023-12-20T11:03:43;7.3;6.6;5.2;3.4;;;;2.0;84.0;
78447;SPS30;67742;51.972;5.682;2023-12-20T11:06:18;6.6;6.0;4.8;3.1;;;;2.0;82.0;
78447;SPS30;67742;51.972;5.682;2023-12-20T11:08:58;6.4;5.8;4.6;3.0;;;;2.0;81.0;
78447;SPS30;67742;51.972;5.682;2023-12-20T11:11:40;6.8;6.2;5.0;3.3;;;;2.0;81.0;
78447;SPS30;67742;51.972;5.682;2023-12-20T11:14:17;6.8;6.2;4.9;3.2;;;;2.0;64.0;
78447;SPS30;67742;51.972;5.682;2023-12-20T11:16:50;6.6;6.0;4.8;3.2;;;;2.0;59.0;
78447;SPS30;67742;51.972;5.682;2023-12-20T11:19:23;7.1;6.5;5.3;3.5;;;;2.0;56.0;
78447;SPS30;67742;51.972;5.682;2023-12-20T11:21:52;7.2;6.5;5.1;3.3;;;;2.0;51.0;
78447;SPS30;67742;51.972;5.682;2023-12-20T11:24:23;7.0;6.4;5.0;3.2;;;;2.0;50.0;
78447;SPS30;67742;51.972;5.682;2023-12-20T11:26:53;6.7;6.1;4.9;3.2;;;;2.0;45.0;
78447;SPS30;67742;51.972;5.682;2023-12-20T11:29:33;6.5;5.9;4.8;3.1;;;;2.0;45.0;
78447;SPS30;67742;51.972;5.682;2023-12-20T11:32:04;5.9;5.4;4.4;2.9;;;;2.0;45.0;
78447;SPS30;67742;51.972;5.682;2023-12-20T11:34:58;7.0;6.3;5.0;3.2;;;;2.0;48.0;
78447;SPS30;67742;51.972;5.682;2023-12-20T11:37:30;5.5;5.0;3.9;2.5;;;;2.0;47.0;
78447;SPS30;67742;51.972;5.682;2023-12-20T11:40:02;7.8;7.0;5.3;3.1;;;;2.0;38.0;
78447;SPS30;67742;51.972;5.682;2023-12-20T11:42:35;7.5;6.8;5.2;3.2;;;;2.0;35.0;
78447;SPS30;67742;51.972;5.682;2023-12-20T11:45:07;8.6;7.7;5.9;3.5;;;;2.0;34.0;
78447;SPS30;67742;51.972;5.682;2023-12-20T11:47:37;7.6;6.8;5.1;2.8;;;;2.0;30.0;
78447;SPS30;67742;51.972;5.682;2023-12-20T11:50:07;7.0;6.3;4.8;2.8;;;;2.0;30.0;
78447;SPS30;67742;51.972;5.682;2023-12-20T11:52:36;7.8;7.1;5.4;3.2;;;;2.0;28.0;
78447;SPS30;67742;51.972;5.682;2023-12-20T11:55:06;7.1;6.4;5.0;3.0;;;;2.0;22.0;
78447;SPS30;67742;51.972;5.682;2023-12-20T11:57:35;5.2;4.7;3.7;2.3;;;;2.0;17.0;
78447;SPS30;67742;51.972;5.682;2023-12-20T12:00:06;6.6;5.9;4.6;2.7;;;;2.0;16.0;
78447;SPS30;67742;51.972;5.682;2023-12-20T12:02:38;5.1;4.6;3.6;2.3;;;;2.0;17.0;
78447;SPS30;67742;51.972;5.682;2023-12-20T12:05:08;5.3;4.8;3.8;2.5;;;;2.0;17.0;
78447;SPS30;67742;51.972;5.682;2023-12-20T12:07:36;5.5;5.0;4.0;2.5;;;;2.0;16.0;
78447;SPS30;67742;51.972;5.682;2023-12-20T12:10:06;6.1;5.5;4.3;2.6;;;;2.0;17.0;
78447;SPS30;67742;51.972;5.682;2023-12-20T12:12:37;6.2;5.6;4.4;2.8;;;;2.0;17.0;
78447;SPS30;67742;51.972;5.682;2023-12-20T12:15:08;5.5;5.0;4.0;2.6;;;;2.0;17.0;
78447;SPS30;67742;51.972;5.682;2023-12-20T12:17:37;6.6;6.0;4.8;3.1;;;;2.0;19.0;
78447;SPS30;67742;51.972;5.682;2023-12-20T12:20:07;5.8;5.3;4.2;2.7;;;;2.0;24.0;